Time;durP1;ratioP1;P1;durP2;ratioP2;P2;SDS_P1;SDS_P2;PMS_P1;PMS_P2;Temp;Humidity;BMP_temperature;BMP_pressure;BME280_temperature;BME280_humidity;BME280_pressure;Samples;Min_cycle;Max_cycle;Signal;HPM_P1;HPM_P2
2022/01/02 00:02:21;;;;;;;0.40;0.30;;;;;;;11.15;96.65;101519.81;5073712;28;20476;-72
2022/01/02 00:04:50;;;;;;;0.40;0.30;;;;;;;11.13;97.27;101509.28;5073456;28;20452;-73
2022/01/02 00:07:18;;;;;;;0.40;0.30;;;;;;;11.10;97.34;101516.06;5073742;28;20441;-73
2022/01/02 00:09:46;;;;;;;0.40;0.30;;;;;;;11.07;97.10;101510.41;5074612;28;20483;-72
2022/01/02 00:12:17;;;;;;;0.40;0.30;;;;;;;11.02;96.75;101497.69;5073174;28;20488;-73
2022/01/02 00:14:46;;;;;;;0.40;0.30;;;;;;;11.02;96.99;101496.88;5053854;28;20458;-72
2022/01/02 00:17:14;;;;;;;0.40;0.30;;;;;;;11.00;96.66;101499.06;5053702;28;20517;-73
2022/01/02 00:19:51;;;;;;;0.40;0.23;;;;;;;10.93;97.34;101487.72;5072441;28;20560;-73
2022/01/02 00:22:19;;;;;;;0.40;0.30;;;;;;;10.86;97.79;101467.16;5073578;28;20526;-74
2022/01/02 00:24:46;;;;;;;0.40;0.30;;;;;;;10.87;97.64;101470.66;5073155;28;20445;-73
2022/01/02 00:27:15;;;;;;;0.40;0.30;;;;;;;10.84;97.51;101454.97;5073662;28;20464;-73
2022/01/02 00:29:42;;;;;;;0.40;0.23;;;;;;;10.80;97.82;101456.63;5073182;28;20442;-73
2022/01/02 00:32:12;;;;;;;0.50;0.30;;;;;;;10.73;98.32;101440.69;5072603;28;20479;-73
2022/01/02 00:34:40;;;;;;;0.40;0.30;;;;;;;10.64;98.89;101442.38;5073499;28;20804;-73
2022/01/02 00:37:07;;;;;;;0.40;0.30;;;;;;;10.64;98.38;101436.94;5072798;28;20951;-73
2022/01/02 00:39:34;;;;;;;0.40;0.30;;;;;;;10.61;99.42;101430.19;5073271;28;20484;-73
2022/01/02 00:42:07;;;;;;;0.40;0.30;;;;;;;10.58;99.27;101427.22;5072879;28;20445;-73
2022/01/02 00:44:42;;;;;;;0.40;0.30;;;;;;;10.54;99.10;101420.75;5073052;28;20430;-73
2022/01/02 00:47:19;;;;;;;0.40;0.30;;;;;;;10.44;99.13;101407.25;5073277;28;20425;-73
2022/01/02 00:49:57;;;;;;;0.40;0.30;;;;;;;10.35;99.94;101407.03;5072854;28;20417;-73
2022/01/02 00:52:26;;;;;;;0.40;0.30;;;;;;;10.33;100.00;101404.63;5072992;28;20476;-73
2022/01/02 00:54:56;;;;;;;0.40;0.30;;;;;;;10.31;100.00;101390.56;5072936;28;20445;-73
2022/01/02 00:57:30;;;;;;;0.40;0.30;;;;;;;10.27;100.00;101384.09;5072871;28;20441;-73
2022/01/02 01:00:05;;;;;;;0.40;0.30;;;;;;;10.31;100.00;101384.31;5072921;28;20468;-73
2022/01/02 01:02:35;;;;;;;0.40;0.30;;;;;;;10.34;100.00;101389.19;5072506;28;20481;-73
2022/01/02 01:05:05;;;;;;;0.40;0.30;;;;;;;10.30;100.00;101388.91;5072548;28;20865;-73
2022/01/02 01:07:32;;;;;;;0.40;0.30;;;;;;;10.20;100.00;101388.16;5073053;28;20445;-73
2022/01/02 01:09:59;;;;;;;0.40;0.30;;;;;;;10.19;100.00;101387.34;5072810;28;20437;-73
2022/01/02 01:12:26;;;;;;;0.70;0.70;;;;;;;10.19;100.00;101376.50;5072951;28;20821;-73
2022/01/02 01:14:53;;;;;;;0.40;0.30;;;;;;;10.22;100.00;101375.13;5072085;28;20803;-73
2022/01/02 01:17:19;;;;;;;0.40;0.23;;;;;;;10.22;100.00;101378.63;5073007;28;20450;-73
2022/01/02 01:19:51;;;;;;;0.40;0.30;;;;;;;10.19;100.00;101360.25;5072620;28;20504;-73
2022/01/02 01:22:17;;;;;;;0.40;0.30;;;;;;;10.22;100.00;101364.28;5072899;28;20501;-72
2022/01/02 01:24:44;;;;;;;0.40;0.30;;;;;;;10.16;100.00;101371.63;5072683;28;20518;-73
2022/01/02 01:27:10;;;;;;;0.40;0.30;;;;;;;10.15;100.00;101361.91;5072588;28;20963;-73
2022/01/02 01:29:37;;;;;;;0.40;0.20;;;;;;;10.15;100.00;101364.63;5072200;28;20450;-73
2022/01/02 01:32:05;;;;;;;0.40;0.30;;;;;;;10.15;100.00;101353.78;5076423;28;20449;-73
2022/01/02 01:34:32;;;;;;;0.40;0.30;;;;;;;10.13;100.00;101345.13;5076470;28;20445;-73
2022/01/02 01:36:59;;;;;;;0.40;0.30;;;;;;;10.13;100.00;101338.91;5076737;28;20441;-73
2022/01/02 01:39:26;;;;;;;0.40;0.30;;;;;;;10.09;100.00;101330.53;5076034;28;20484;-73
2022/01/02 01:41:54;;;;;;;0.40;0.30;;;;;;;10.06;100.00;101325.69;5076604;28;20437;-73
2022/01/02 01:44:38;;;;;;;0.40;0.30;;;;;;;9.99;100.00;101325.16;5076210;28;20502;-73
2022/01/02 01:47:05;;;;;;;0.40;0.30;;;;;;;9.97;100.00;101324.66;5076585;28;20428;-73
2022/01/02 01:49:31;;;;;;;0.40;0.30;;;;;;;9.98;100.00;101316.25;5076288;28;20444;-73
2022/01/02 01:51:57;;;;;;;0.50;0.50;;;;;;;10.02;100.00;101316.50;5076355;28;20440;-73
2022/01/02 01:54:25;;;;;;;0.40;0.30;;;;;;;10.05;100.00;101302.41;5076129;28;20446;-73
2022/01/02 01:56:53;;;;;;;0.40;0.20;;;;;;;10.05;100.00;101291.59;5076420;28;20457;-73
2022/01/02 01:59:21;;;;;;;0.40;0.30;;;;;;;10.03;100.00;101291.84;5076015;28;20514;-73
2022/01/02 02:01:48;;;;;;;3.10;2.83;;;;;;;9.97;100.00;101289.47;5076276;28;20449;-73
2022/01/02 02:04:15;;;;;;;0.40;0.30;;;;;;;9.98;100.00;101285.66;5075719;28;20457;-72
2022/01/02 02:06:41;;;;;;;0.60;0.53;;;;;;;9.94;100.00;101293.53;5076240;28;20449;-73
2022/01/02 02:09:08;;;;;;;0.60;0.50;;;;;;;9.97;100.00;101289.47;5075617;28;20895;-73
2022/01/02 02:11:38;;;;;;;0.40;0.30;;;;;;;9.94;100.00;101288.13;5075788;28;20450;-73
2022/01/02 02:14:06;;;;;;;0.40;0.30;;;;;;;9.90;100.00;101281.66;5075906;28;20472;-72
2022/01/02 02:16:34;;;;;;;0.40;0.30;;;;;;;9.82;100.00;101261.38;5075072;28;20954;-73
2022/01/02 02:19:00;;;;;;;0.50;0.47;;;;;;;9.83;100.00;101252.19;5075588;28;20488;-72
2022/01/02 02:21:30;;;;;;;1.60;1.50;;;;;;;9.80;100.00;101244.63;5075697;28;20433;-73
2022/01/02 02:23:57;;;;;;;4.30;4.03;;;;;;;9.78;100.00;101251.41;5075675;28;20465;-73
2022/01/02 02:26:23;;;;;;;0.40;0.30;;;;;;;9.74;100.00;101251.16;5075132;28;20520;-73
2022/01/02 02:28:49;;;;;;;0.40;0.30;;;;;;;9.72;100.00;101256.03;5075829;28;20441;-73
2022/01/02 02:31:16;;;;;;;0.40;0.30;;;;;;;9.69;100.00;101261.19;5075207;28;20452;-73
2022/01/02 02:33:42;;;;;;;0.40;0.20;;;;;;;9.67;100.00;101260.66;5074607;28;20908;-73
2022/01/02 02:36:09;;;;;;;0.40;0.30;;;;;;;9.64;100.00;101245.00;5075137;28;20468;-73
2022/01/02 02:38:39;;;;;;;0.40;0.27;;;;;;;9.64;100.00;101234.97;5075122;28;20441;-73
2022/01/02 02:41:05;;;;;;;0.40;0.30;;;;;;;9.65;100.00;101224.97;5075495;28;20453;-72
2022/01/02 02:43:37;;;;;;;0.40;0.30;;;;;;;9.59;100.00;101214.19;5074343;28;20457;-73
2022/01/02 02:49:03;;;;;;;0.40;0.30;;;;;;;9.65;100.00;101214.97;5055314;28;20457;-73
2022/01/02 02:51:37;;;;;;;0.40;0.30;;;;;;;9.68;100.00;101202.78;5059665;28;20476;-73
2022/01/02 02:54:05;;;;;;;2.23;2.13;;;;;;;9.64;100.00;101199.00;5074945;28;20973;-73
2022/01/02 02:56:42;;;;;;;1.20;1.13;;;;;;;9.65;100.00;101185.22;5075120;28;20453;-73
2022/01/02 02:59:09;;;;;;;0.40;0.30;;;;;;;9.69;100.00;101172.72;5074916;28;20982;-73
2022/01/02 03:01:36;;;;;;;0.40;0.30;;;;;;;9.70;100.00;101182.47;5074918;28;20853;-73
2022/01/02 03:04:03;;;;;;;0.40;0.30;;;;;;;9.68;100.00;101173.81;5075100;28;20461;-73
2022/01/02 03:06:29;;;;;;;0.40;0.30;;;;;;;9.68;100.00;101170.31;5074468;28;20453;-73
2022/01/02 03:09:00;;;;;;;0.40;0.30;;;;;;;9.66;100.00;101170.59;5075089;28;20450;-73
2022/01/02 03:11:28;;;;;;;0.40;0.30;;;;;;;9.66;100.00;101173.31;5074483;28;20441;-73
2022/01/02 03:13:55;;;;;;;0.40;0.30;;;;;;;9.67;100.00;101161.41;5074764;28;20473;-73
2022/01/02 03:16:22;;;;;;;0.40;0.30;;;;;;;9.66;100.00;101165.19;5074359;28;20469;-73
2022/01/02 03:18:48;;;;;;;0.40;0.30;;;;;;;9.60;100.00;101169.00;5074418;28;20817;-73
2022/01/02 03:21:15;;;;;;;0.40;0.30;;;;;;;9.59;100.00;101178.22;5074483;28;20452;-73
2022/01/02 03:23:41;;;;;;;0.40;0.30;;;;;;;9.59;100.00;101167.38;5074663;28;20511;-73
2022/01/02 03:26:08;;;;;;;0.40;0.30;;;;;;;9.55;100.00;101153.63;5074286;28;20445;-72
2022/01/02 03:28:36;;;;;;;0.63;0.63;;;;;;;9.52;100.00;101159.59;5074122;28;20446;-71
2022/01/02 03:31:03;;;;;;;0.40;0.30;;;;;;;9.52;100.00;101156.91;5074300;28;20437;-72
2022/01/02 03:33:29;;;;;;;0.40;0.30;;;;;;;9.52;100.00;101159.59;5073800;28;20477;-74
2022/01/02 03:35:56;;;;;;;0.40;0.30;;;;;;;9.54;100.00;101154.72;5074634;28;20495;-74
2022/01/02 03:38:22;;;;;;;0.40;0.30;;;;;;;9.54;100.00;101143.88;5074460;28;20442;-74
2022/01/02 03:40:49;;;;;;;0.40;0.30;;;;;;;9.49;100.00;101127.69;5073814;28;20850;-75
2022/01/02 03:43:15;;;;;;;0.40;0.30;;;;;;;9.50;100.00;101125.81;5073980;28;21013;-75
2022/01/02 03:45:43;;;;;;;0.40;0.20;;;;;;;9.50;100.00;101115.00;5073973;28;20490;-74
2022/01/02 03:48:09;;;;;;;0.40;0.30;;;;;;;9.50;100.00;101115.00;5073942;28;20445;-75
2022/01/02 03:50:36;;;;;;;0.40;0.30;;;;;;;9.51;100.00;101111.19;5073619;28;20445;-74
2022/01/02 03:53:03;;;;;;;0.40;0.30;;;;;;;9.52;100.00;101107.41;5073997;28;20468;-75
2022/01/02 03:55:30;;;;;;;0.40;0.20;;;;;;;9.51;100.00;101112.00;5073792;28;20487;-75
2022/01/02 03:57:56;;;;;;;0.40;0.30;;;;;;;9.48;100.00;101112.56;5074102;28;20444;-74
2022/01/02 04:00:23;;;;;;;0.40;0.30;;;;;;;9.46;100.00;101116.63;5073672;28;20538;-74
2022/01/02 04:02:50;;;;;;;0.40;0.30;;;;;;;9.48;100.00;101117.97;5073684;28;20464;-74
2022/01/02 04:05:18;;;;;;;0.40;0.20;;;;;;;9.48;100.00;101099.06;5073594;28;20479;-74
2022/01/02 04:07:45;;;;;;;0.40;0.30;;;;;;;9.49;100.00;101107.97;5073758;28;20495;-74
2022/01/02 04:10:14;;;;;;;0.40;0.30;;;;;;;9.51;100.00;101092.25;5073438;28;20464;-74
2022/01/02 04:12:41;;;;;;;0.40;0.30;;;;;;;9.48;100.00;101109.88;5073536;28;20454;-74
2022/01/02 04:15:09;;;;;;;0.40;0.20;;;;;;;9.48;100.00;101134.22;5053809;28;20442;-75
2022/01/02 04:17:36;;;;;;;0.40;0.30;;;;;;;9.49;100.00;101130.41;5053399;28;20989;-74
2022/01/02 04:20:06;;;;;;;0.40;0.30;;;;;;;9.53;100.00;101131.47;5073251;28;20853;-75
2022/01/02 04:22:32;;;;;;;0.40;0.20;;;;;;;9.56;100.00;101132.78;5073233;28;20461;-72
2022/01/02 04:24:59;;;;;;;1.77;1.67;;;;;;;9.56;100.00;101124.66;5073357;28;20872;-74
2022/01/02 04:27:25;;;;;;;0.40;0.30;;;;;;;9.57;100.00;101127.13;5073639;28;20441;-74
2022/01/02 04:29:53;;;;;;;0.40;0.30;;;;;;;9.57;100.00;101131.72;5073290;28;20452;-74
2022/01/02 04:32:19;;;;;;;0.40;0.30;;;;;;;9.55;100.00;101129.28;5073356;28;20473;-74
2022/01/02 04:34:46;;;;;;;0.40;0.30;;;;;;;9.53;100.00;101122.53;5073101;28;20822;-74
2022/01/02 04:37:14;;;;;;;0.40;0.30;;;;;;;9.53;100.00;101115.25;5073433;28;20441;-74
2022/01/02 04:39:41;;;;;;;0.40;0.30;;;;;;;9.51;100.00;101122.00;5072750;28;20986;-74
2022/01/02 04:42:08;;;;;;;0.40;0.30;;;;;;;9.52;100.00;101112.81;5072842;28;20457;-74
2022/01/02 04:44:35;;;;;;;0.40;0.30;;;;;;;9.53;100.00;101127.97;5073077;28;20796;-74
2022/01/02 04:47:02;;;;;;;0.40;0.30;;;;;;;9.51;100.00;101139.03;5073027;28;20444;-74
2022/01/02 04:49:28;;;;;;;0.77;0.77;;;;;;;9.44;100.00;101127.75;5073325;28;20449;-74
2022/01/02 04:51:55;;;;;;;0.40;0.20;;;;;;;9.46;100.00;101122.03;5072679;28;20864;-74
2022/01/02 04:54:23;;;;;;;0.40;0.30;;;;;;;9.44;100.00;101105.31;5073238;28;20859;-74
2022/01/02 04:56:50;;;;;;;0.40;0.20;;;;;;;9.44;100.00;101110.72;5072931;28;20671;-73
2022/01/02 04:59:16;;;;;;;0.40;0.30;;;;;;;9.44;100.00;101100.69;5072989;28;20456;-73
2022/01/02 05:01:43;;;;;;;0.40;0.30;;;;;;;9.43;100.00;101106.38;5071950;28;20445;-73
2022/01/02 05:04:09;;;;;;;0.40;0.30;;;;;;;9.37;100.00;101102.09;5072792;28;20523;-73
2022/01/02 05:06:36;;;;;;;0.40;0.30;;;;;;;9.36;100.00;101101.28;5072229;28;20555;-73
2022/01/02 05:09:04;;;;;;;0.40;0.30;;;;;;;9.36;100.00;101095.88;5072357;28;20441;-73
2022/01/02 05:11:31;;;;;;;0.40;0.30;;;;;;;9.32;100.00;101098.34;5072787;28;20506;-73
2022/01/02 05:13:58;;;;;;;0.40;0.30;;;;;;;9.30;100.00;101089.72;5072760;28;20461;-73
2022/01/02 05:16:24;;;;;;;0.40;0.30;;;;;;;9.28;100.00;101085.66;5072675;28;20433;-73
2022/01/02 05:18:51;;;;;;;0.40;0.30;;;;;;;9.22;100.00;101079.47;5072904;28;20445;-73
2022/01/02 05:21:17;;;;;;;0.40;0.30;;;;;;;9.22;100.00;101068.66;5072849;28;20489;-73
2022/01/02 05:23:43;;;;;;;0.40;0.30;;;;;;;9.25;100.00;101051.06;5072560;28;20472;-73
2022/01/02 05:26:10;;;;;;;0.40;0.30;;;;;;;9.28;100.00;101042.41;5072963;28;20453;-74
2022/01/02 05:28:38;;;;;;;0.40;0.30;;;;;;;9.29;100.00;101038.59;5072379;28;20954;-73
2022/01/02 05:31:04;;;;;;;0.40;0.27;;;;;;;9.33;100.00;101042.38;5072426;28;20491;-73
2022/01/02 05:33:30;;;;;;;0.40;0.30;;;;;;;9.32;100.00;101024.53;5072381;28;20493;-74
2022/01/02 05:35:57;;;;;;;0.40;0.30;;;;;;;9.31;100.00;101031.84;5072290;28;20954;-74
2022/01/02 05:38:23;;;;;;;0.40;0.20;;;;;;;9.28;100.00;101032.41;5072767;28;20456;-74
2022/01/02 05:40:52;;;;;;;0.40;0.30;;;;;;;9.28;100.00;101037.81;5072344;28;20480;-73
2022/01/02 05:43:18;;;;;;;0.40;0.30;;;;;;;9.28;100.00;101037.81;5072183;28;20543;-74
2022/01/02 05:45:46;;;;;;;0.40;0.30;;;;;;;9.30;100.00;101022.13;5072407;28;20816;-74
2022/01/02 05:48:12;;;;;;;0.40;0.30;;;;;;;9.24;100.00;101008.91;5072456;28;20448;-74
2022/01/02 05:50:39;;;;;;;0.40;0.30;;;;;;;9.25;100.00;101014.06;5072310;28;20437;-73
2022/01/02 05:53:05;;;;;;;0.40;0.30;;;;;;;9.27;100.00;101024.56;5072336;28;20987;-74
2022/01/02 05:55:32;;;;;;;0.40;0.30;;;;;;;9.27;100.00;101032.69;5072108;28;20449;-74
2022/01/02 05:57:58;;;;;;;0.40;0.30;;;;;;;9.23;100.00;101018.91;5072273;28;20445;-74
2022/01/02 06:00:25;;;;;;;0.40;0.30;;;;;;;9.22;100.00;101001.09;5071891;28;20484;-73
2022/01/02 06:02:52;;;;;;;0.40;0.30;;;;;;;9.22;100.00;100992.19;5072456;28;20468;-74
2022/01/02 06:05:19;;;;;;;0.40;0.30;;;;;;;9.22;100.00;100995.69;5072148;28;20445;-74
2022/01/02 06:07:45;;;;;;;0.40;0.30;;;;;;;9.19;100.00;100985.44;5072540;28;20452;-74
2022/01/02 06:10:12;;;;;;;0.40;0.30;;;;;;;9.21;100.00;100985.97;5073271;28;20445;-74
2022/01/02 06:12:38;;;;;;;0.40;0.30;;;;;;;9.19;100.00;100981.94;5072376;28;20465;-73
2022/01/02 06:15:06;;;;;;;0.40;0.30;;;;;;;9.22;100.00;100987.59;5071725;28;20438;-74
2022/01/02 06:17:33;;;;;;;0.40;0.30;;;;;;;9.24;100.00;100976.47;5073686;28;20485;-74
2022/01/02 06:20:01;;;;;;;0.40;0.30;;;;;;;9.20;100.00;100976.22;5075656;28;20481;-73
2022/01/02 06:22:27;;;;;;;0.40;0.30;;;;;;;9.18;100.00;100978.41;5075898;28;20464;-73
2022/01/02 06:24:54;;;;;;;0.40;0.30;;;;;;;9.21;100.00;100987.84;5075706;28;20464;-74
2022/01/02 06:27:20;;;;;;;0.40;0.30;;;;;;;9.22;100.00;100975.97;5075918;28;20481;-74
2022/01/02 06:29:48;;;;;;;0.40;0.30;;;;;;;9.25;100.00;100973.50;5075798;28;20448;-74
2022/01/02 06:32:14;;;;;;;0.40;0.30;;;;;;;9.30;100.00;100970.75;5075523;28;20889;-74
2022/01/02 06:34:41;;;;;;;0.40;0.30;;;;;;;9.31;100.00;100972.38;5075364;28;20437;-74
2022/01/02 06:37:08;;;;;;;0.40;0.30;;;;;;;9.33;100.00;100964.78;5075696;28;20445;-74
2022/01/02 06:39:35;;;;;;;0.40;0.30;;;;;;;9.33;100.00;100951.25;5075129;28;20954;-74
2022/01/02 06:42:01;;;;;;;0.40;0.30;;;;;;;9.33;100.00;100959.38;5075190;28;20481;-73
2022/01/02 06:44:28;;;;;;;0.40;0.30;;;;;;;9.35;100.00;100959.91;5075627;28;20448;-74
2022/01/02 06:46:54;;;;;;;0.40;0.30;;;;;;;9.38;100.00;100972.03;5074776;28;20453;-73
2022/01/02 06:49:21;;;;;;;0.40;0.30;;;;;;;9.41;100.00;100973.38;5075080;28;20441;-73
2022/01/02 06:51:47;;;;;;;0.40;0.30;;;;;;;9.44;100.00;100943.06;5075434;28;20448;-74
2022/01/02 06:54:15;;;;;;;0.40;0.30;;;;;;;9.48;100.00;100939.53;5075371;28;20461;-74
2022/01/02 06:56:41;;;;;;;0.40;0.30;;;;;;;9.51;100.00;100927.31;5075078;28;20946;-74
2022/01/02 06:59:08;;;;;;;0.40;0.30;;;;;;;9.54;100.00;100926.75;5075273;28;20466;-74
2022/01/02 07:01:34;;;;;;;0.40;0.30;;;;;;;9.56;100.00;100921.84;5074777;28;20481;-73
2022/01/02 07:04:01;;;;;;;0.40;0.30;;;;;;;9.59;100.00;100918.59;5074779;28;20462;-73
2022/01/02 07:06:27;;;;;;;0.40;0.30;;;;;;;9.66;100.00;100929.06;5075159;28;20445;-73
2022/01/02 07:08:53;;;;;;;0.40;0.30;;;;;;;9.70;100.00;100930.13;5075017;28;20444;-72
2022/01/02 07:11:21;;;;;;;0.40;0.30;;;;;;;9.74;100.00;100933.84;5075041;28;20445;-73
2022/01/02 07:13:48;;;;;;;0.40;0.30;;;;;;;9.74;100.00;100940.06;5074086;28;20465;-73
2022/01/02 07:16:14;;;;;;;0.40;0.30;;;;;;;9.74;100.00;100931.13;5074640;28;20852;-73
2022/01/02 07:18:40;;;;;;;0.40;0.30;;;;;;;9.78;100.00;100948.41;5074679;28;20450;-73
2022/01/02 07:21:07;;;;;;;0.40;0.30;;;;;;;9.82;100.00;100944.84;5074776;28;20489;-73
2022/01/02 07:23:33;;;;;;;0.40;0.30;;;;;;;9.85;100.00;100928.03;5074587;28;20465;-74
2022/01/02 07:26:00;;;;;;;0.40;0.30;;;;;;;9.89;100.00;100927.47;5074758;28;20453;-74
2022/01/02 07:28:29;;;;;;;0.40;0.27;;;;;;;9.91;100.00;100933.38;5074039;28;20491;-74
2022/01/02 07:30:55;;;;;;;0.40;0.30;;;;;;;9.92;100.00;100924.19;5074624;28;20460;-73
2022/01/02 07:33:22;;;;;;;0.40;0.30;;;;;;;9.94;100.00;100922.00;5073985;28;20484;-72
2022/01/02 07:35:48;;;;;;;0.40;0.30;;;;;;;9.93;100.00;100917.69;5074557;28;20441;-72
2022/01/02 07:38:14;;;;;;;0.40;0.30;;;;;;;9.93;100.00;100918.50;5074411;28;20859;-71
2022/01/02 07:40:41;;;;;;;0.40;0.20;;;;;;;9.96;100.00;100927.91;5074312;28;20526;-74
2022/01/02 07:43:07;;;;;;;0.40;0.20;;;;;;;9.94;100.00;100925.50;5073874;28;20536;-74
2022/01/02 07:45:35;;;;;;;0.40;0.30;;;;;;;9.95;100.00;100929.00;5074280;28;20445;-74
2022/01/02 07:48:01;;;;;;;0.40;0.30;;;;;;;9.98;100.00;100917.63;5074270;28;20457;-73
2022/01/02 07:50:28;;;;;;;0.40;0.30;;;;;;;9.99;100.00;100911.91;5074034;28;20453;-73
2022/01/02 07:52:54;;;;;;;0.40;0.30;;;;;;;9.98;100.00;100901.38;5074100;28;20495;-75
2022/01/02 07:55:21;;;;;;;0.50;0.30;;;;;;;10.03;100.00;100902.13;5073971;28;20453;-74
2022/01/02 07:57:47;;;;;;;0.40;0.20;;;;;;;10.04;100.00;100900.22;5073700;28;20516;-74
2022/01/02 08:00:15;;;;;;;0.40;0.30;;;;;;;10.04;100.00;100901.03;5073789;28;20448;-73
2022/01/02 08:02:43;;;;;;;0.40;0.30;;;;;;;10.07;100.00;100915.88;5073941;28;20510;-73
2022/01/02 08:05:11;;;;;;;0.77;0.77;;;;;;;10.08;100.00;100906.66;5073520;28;20457;-73
2022/01/02 08:07:38;;;;;;;0.40;0.30;;;;;;;10.04;100.00;100903.72;5073865;28;20885;-73
2022/01/02 08:10:05;;;;;;;0.40;0.30;;;;;;;10.08;100.00;100898.56;5073314;28;20878;-72
2022/01/02 08:12:32;;;;;;;0.40;0.30;;;;;;;10.14;100.00;100902.81;5073779;28;20465;-73
2022/01/02 08:14:58;;;;;;;0.40;0.30;;;;;;;10.12;100.00;100907.69;5073448;28;20441;-74
2022/01/02 08:17:27;;;;;;;0.40;0.30;;;;;;;10.11;100.00;100887.16;5073750;28;20441;-71
2022/01/02 08:19:55;;;;;;;0.40;0.30;;;;;;;10.17;100.00;100896.00;5073306;28;20449;-71
2022/01/02 08:22:22;;;;;;;0.40;0.30;;;;;;;10.17;100.00;100902.22;5073456;28;20485;-72
2022/01/02 08:24:49;;;;;;;0.40;0.30;;;;;;;10.22;100.00;100896.72;5073377;28;20476;-72
2022/01/02 08:27:15;;;;;;;0.40;0.30;;;;;;;10.18;100.00;100905.72;5073608;28;20437;-73
2022/01/02 08:29:42;;;;;;;0.40;0.30;;;;;;;10.26;100.00;100900.50;5072924;28;21006;-72
2022/01/02 08:32:08;;;;;;;0.40;0.30;;;;;;;10.35;100.00;100892.53;5073458;28;20847;-72
2022/01/02 08:34:35;;;;;;;0.40;0.30;;;;;;;10.43;100.00;100882.97;5072943;28;20962;-73
2022/01/02 08:37:03;;;;;;;0.40;0.40;;;;;;;10.50;100.00;100886.13;5072654;28;20873;-73
2022/01/02 08:39:29;;;;;;;0.40;0.20;;;;;;;10.53;100.00;100888.22;5072963;28;20442;-73
2022/01/02 08:41:56;;;;;;;0.40;0.30;;;;;;;10.57;100.00;100890.06;5072269;28;20861;-72
2022/01/02 08:44:23;;;;;;;0.40;0.30;;;;;;;10.60;100.00;100888.69;5073271;28;20445;-72
2022/01/02 08:46:50;;;;;;;0.40;0.30;;;;;;;10.61;100.00;100872.13;5073092;28;20485;-72
2022/01/02 08:49:17;;;;;;;0.40;0.20;;;;;;;10.66;100.00;100887.50;5073256;28;20450;-72
2022/01/02 08:51:43;;;;;;;0.40;0.20;;;;;;;10.70;100.00;100882.28;5073046;28;20441;-71
2022/01/02 08:54:11;;;;;;;0.40;0.30;;;;;;;10.72;100.00;100864.66;5073060;28;20457;-71
2022/01/02 08:56:37;;;;;;;0.40;0.30;;;;;;;10.73;100.00;100866.25;5072690;28;20464;-73
2022/01/02 08:59:04;;;;;;;0.40;0.27;;;;;;;10.78;100.00;100873.50;5072874;28;20943;-73
2022/01/02 09:01:30;;;;;;;0.40;0.30;;;;;;;10.82;100.00;100869.91;5072704;28;20489;-73
2022/01/02 09:03:57;;;;;;;0.40;0.30;;;;;;;10.86;100.00;100865.50;5073080;28;20457;-73
2022/01/02 09:06:23;;;;;;;0.40;0.30;;;;;;;10.94;100.00;100861.31;5072466;28;20452;-72
2022/01/02 09:08:49;;;;;;;0.40;0.30;;;;;;;11.00;100.00;100856.63;5073136;28;20524;-72
2022/01/02 09:11:17;;;;;;;0.40;0.20;;;;;;;11.05;100.00;100861.94;5072666;28;20487;-71
2022/01/02 09:13:44;;;;;;;0.50;0.50;;;;;;;11.13;100.00;100855.84;5072991;28;20461;-72
2022/01/02 09:16:10;;;;;;;0.40;0.20;;;;;;;11.17;100.00;100846.03;5072197;28;20449;-74
2022/01/02 09:18:36;;;;;;;0.40;0.30;;;;;;;11.21;100.00;100848.94;5053014;28;20457;-72
2022/01/02 09:21:03;;;;;;;0.40;0.30;;;;;;;11.23;100.00;100852.94;5061045;28;20483;-71
2022/01/02 09:23:29;;;;;;;0.40;0.20;;;;;;;11.29;100.00;100859.09;5072599;28;20461;-73
2022/01/02 09:25:56;;;;;;;0.40;0.20;;;;;;;11.30;100.00;100845.25;5072155;28;20433;-74
2022/01/02 09:28:24;;;;;;;0.40;0.30;;;;;;;11.34;100.00;100842.75;5072518;28;20433;-74
2022/01/02 09:30:51;;;;;;;0.40;0.30;;;;;;;11.37;100.00;100842.91;5071769;28;20433;-73
2022/01/02 09:33:17;;;;;;;0.40;0.30;;;;;;;11.37;100.00;100837.50;5070358;28;20465;-73
2022/01/02 09:35:44;;;;;;;0.40;0.40;;;;;;;11.39;100.00;100839.94;5070272;28;20467;-73
2022/01/02 09:38:10;;;;;;;0.40;0.30;;;;;;;11.40;100.00;100833.38;5071013;28;20469;-72
2022/01/02 09:40:37;;;;;;;0.40;0.30;;;;;;;11.42;100.00;100833.09;5071580;28;20448;-72
2022/01/02 09:43:07;;;;;;;2.20;2.10;;;;;;;11.39;100.00;100833.69;5071308;28;20495;-73
2022/01/02 09:45:38;;;;;;;0.40;0.20;;;;;;;11.42;100.00;100828.50;5071747;28;20445;-72
2022/01/02 09:48:05;;;;;;;0.40;0.30;;;;;;;11.47;100.00;100819.44;5072167;28;20433;-73
2022/01/02 09:50:32;;;;;;;0.40;0.30;;;;;;;11.50;100.00;100827.75;5072402;28;20441;-72
2022/01/02 09:52:59;;;;;;;0.40;0.30;;;;;;;11.45;100.00;100827.06;5075670;28;20457;-73
2022/01/02 09:55:26;;;;;;;1.40;1.30;;;;;;;11.49;100.00;100822.66;5076397;28;20456;-72
2022/01/02 09:57:53;;;;;;;0.40;0.30;;;;;;;11.53;100.00;100812.81;5075952;28;20472;-72
2022/01/02 10:00:20;;;;;;;0.40;0.30;;;;;;;11.58;100.00;100815.41;5075827;28;20977;-72
2022/01/02 10:02:59;;;;;;;0.40;0.30;;;;;;;11.58;100.00;100805.34;5075551;28;20568;-73
2022/01/02 10:05:27;;;;;;;0.40;0.30;;;;;;;11.57;100.00;100806.47;5076436;28;20441;-72
2022/01/02 10:07:55;;;;;;;0.40;0.30;;;;;;;11.54;100.00;100801.63;5075525;28;20441;-72
2022/01/02 10:10:31;;;;;;;0.40;0.20;;;;;;;11.59;100.00;100806.16;5076221;28;20506;-72
2022/01/02 10:13:00;;;;;;;0.50;0.40;;;;;;;11.62;100.00;100792.78;5075946;28;20495;-72
2022/01/02 10:15:28;;;;;;;0.40;0.20;;;;;;;11.69;100.00;100778.03;5075679;28;20506;-71
2022/01/02 10:18:01;;;;;;;4.30;1.63;;;;;;;11.75;100.00;100772.19;5075513;28;20460;-71
2022/01/02 10:20:29;;;;;;;0.40;0.20;;;;;;;11.78;100.00;100776.22;5075503;28;20445;-71
2022/01/02 10:23:08;;;;;;;0.40;0.30;;;;;;;11.82;100.00;100761.75;5074386;28;20477;-70
2022/01/02 10:25:39;;;;;;;0.40;0.30;;;;;;;11.83;100.00;100751.69;5075368;28;20954;-70
2022/01/02 10:28:28;;;;;;;0.40;0.30;;;;;;;11.84;100.00;100745.97;5075233;28;20510;-71
2022/01/02 10:30:57;;;;;;;0.40;0.30;;;;;;;11.85;100.00;100744.84;5074626;28;20442;-71
2022/01/02 10:33:25;;;;;;;0.40;0.20;;;;;;;11.91;100.00;100752.88;5073839;28;20825;-71
2022/01/02 10:35:57;;;;;;;0.40;0.30;;;;;;;11.93;100.00;100739.81;5073788;28;20950;-70
2022/01/02 10:38:24;;;;;;;0.50;0.40;;;;;;;11.93;100.00;100745.25;5074136;28;20513;-71
2022/01/02 10:40:50;;;;;;;0.40;0.30;;;;;;;11.92;100.00;100722.72;5075175;28;20445;-71
2022/01/02 10:43:26;;;;;;;3.30;3.03;;;;;;;11.91;100.00;100726.56;5072998;28;20477;-71
2022/01/02 10:45:55;;;;;;;0.40;0.20;;;;;;;11.91;100.00;100721.13;5074584;28;20954;-71
2022/01/02 10:48:36;;;;;;;0.40;0.30;;;;;;;11.89;100.00;100701.63;5074606;28;20449;-71
2022/01/02 10:51:08;;;;;;;0.73;0.73;;;;;;;11.85;100.00;100692.47;5074727;28;20989;-70
2022/01/02 10:53:36;;;;;;;0.40;0.30;;;;;;;11.80;100.00;100706.94;5074547;28;20523;-71
2022/01/02 10:56:05;;;;;;;4.57;4.17;;;;;;;11.77;100.00;100693.97;5073243;28;20437;-71
2022/01/02 10:58:33;;;;;;;0.40;0.30;;;;;;;11.77;100.00;100696.69;5073547;28;20487;-71
2022/01/02 11:01:04;;;;;;;1.23;1.13;;;;;;;11.72;100.00;100685.94;5075047;28;20468;-71
2022/01/02 11:03:32;;;;;;;0.40;0.20;;;;;;;11.70;100.00;100677.31;5073793;28;20481;-71
2022/01/02 11:06:05;;;;;;;0.40;0.20;;;;;;;11.67;100.00;100658.94;5072675;28;20442;-71
2022/01/02 11:08:34;;;;;;;0.40;0.30;;;;;;;11.67;100.00;100653.50;5072763;28;20943;-71
2022/01/02 11:11:01;;;;;;;0.40;0.30;;;;;;;11.65;100.00;100646.81;5074216;28;20910;-71
2022/01/02 11:13:28;;;;;;;0.40;0.30;;;;;;;11.64;100.00;100648.69;5073524;28;20540;-71
2022/01/02 11:15:55;;;;;;;0.40;0.30;;;;;;;11.61;100.00;100647.41;5074563;28;20441;-71
2022/01/02 11:18:22;;;;;;;0.40;0.30;;;;;;;11.61;100.00;100622.19;5073961;28;20954;-73
2022/01/02 11:20:50;;;;;;;0.40;0.30;;;;;;;11.59;100.00;100613.53;5074032;28;20441;-72
2022/01/02 11:23:24;;;;;;;0.40;0.30;;;;;;;11.58;100.00;100611.94;5074513;28;20493;-72
2022/01/02 11:25:58;;;;;;;0.40;0.20;;;;;;;11.58;100.00;100620.06;5074868;28;20433;-73
2022/01/02 11:28:34;;;;;;;0.40;0.20;;;;;;;11.60;100.00;100628.72;5074803;28;20429;-72